This is the latest recevied weather packets stored in our database for station/object YC0TBU-3. If no packets are shown the sender has not sent any weather packets the latest 10 day(s).
| Time | Temp. | Humidity | Pressure | Rain* | Wind** | Luminosity | Snow |
|---|---|---|---|---|---|---|---|
| 1787878756 | 27.22° C | 67% | 1017.6 hPa | - | - | - | - |
| 1787877043 | 26.67° C | 69% | 1017.5 hPa | - | - | - | - |
| 1787875344 | 26.11° C | 71% | 1016.6 hPa | - | - | - | - |
| 1787873657 | 27.22° C | 69% | 1017.2 hPa | - | - | - | - |
| 1787871929 | 25.56° C | 74% | 1016.1 hPa | - | - | - | - |
| 1787870229 | 26.11° C | 72% | 1016.8 hPa | - | - | - | - |
| 1787868554 | 27.22° C | 68% | 1016.5 hPa | - | - | - | - |
| 1787866811 | 27.22° C | 68% | 1015.7 hPa | - | - | - | - |
| 1787865123 | 27.78° C | 67% | 1014.7 hPa | - | - | - | - |
| 1787863404 | 28.33° C | 66% | 1014.8 hPa | - | - | - | - |
| 1787861696 | 28.89° C | 64% | 1016 hPa | - | - | - | - |
| 1787859996 | 29.44° C | 65% | 1016 hPa | - | - | - | - |
| 1787858296 | 29.44° C | 64% | 1016.6 hPa | - | - | - | - |
| 1787856649 | 29.44° C | 63% | 1016.3 hPa | - | - | - | - |
| 1787854934 | 29.44° C | 64% | 1016.1 hPa | - | - | - | - |
| 1787853196 | 29.44° C | 64% | 1016.2 hPa | - | - | - | - |
| 1787851496 | 30° C | 64% | 1017.7 hPa | - | - | - | - |
| 1787849796 | 30° C | 64% | 1016.1 hPa | - | - | - | - |
| 1787848112 | 30° C | 65% | 1017.7 hPa | - | - | - | - |
| 1787846396 | 30.56° C | 65% | 1017.7 hPa | - | - | - | - |
| 1787844696 | 31.11° C | 65% | 1018.3 hPa | - | - | - | - |
| 1787841296 | 31.11° C | 63% | 1017.7 hPa | - | - | - | - |
| 1787839596 | 31.11° C | 62% | 1017.1 hPa | - | - | - | - |
| 1787837896 | 31.11° C | 63% | 1018 hPa | - | - | - | - |
| 1787836197 | 31.11° C | 63% | 1015.2 hPa | - | - | - | - |
* Rain since midnight (hover to see other rain measurements)
** Current wind speed in m/s (hover to see current wind gust speed)